Currently 50°F in Pinon Hills, California, USA
50°F
64°F / 45°F
calm
0.00"
Wednesday, January 17, 2018 6:05 PM PST

Pinon Hills, California Weather Summary
Last 36 Hours

Temperature Winds Hourly Humidity Dewpoint
Time Report Norm Report Norm Max Gusts Precip. Rpt. Norm Rpt. Norm Pressure
1Wed 06:05 PM  50.1°F  49°F  calm  3 mph  3 mph  0.00"  55%  57%  34°F  33°F  30.25"
Wed 06:00 PM  50.2°F  49°F  2 mph W  2 mph  3 mph  0.00"  56%  57%  34°F  34°F  30.25"
Wed 05:00 PM  53.8°F  52°F  calm  2 mph  2 mph  0.00"  51%  54%  35°F  35°F  30.24"
Wed 04:00 PM  60.1°F  57°F  calm  3 mph  10 mph  0.00"  35%  46%  31°F  35°F  30.24"
Wed 03:00 PM  62.0°F  58°F  3 mph S  4 mph  8 mph  0.00"  34%  44%  32°F  35°F  30.24"
Wed 02:00 PM  62.6°F  58°F  calm  4 mph  7 mph  0.00"  33%  41%  32°F  34°F  30.22"
2Wed 01:15 PM  63.8°F  58°F  calm  3 mph  5 mph  ----  32%  41%  32°F  34°F  30.22"
Wed 01:00 PM  63.2°F  58°F  calm  4 mph  7 mph  0.00"  33%  42%  33°F  34°F  30.23"
Wed 12:00 PM  62.1°F  58°F  1 mph N  4 mph  7 mph  0.00"  35%  43%  33°F  34°F  30.24"
Wed 11:00 AM  61.4°F  57°F  2 mph SE  4 mph  7 mph  0.00"  36%  42%  33°F  33°F  30.27"
Wed 10:00 AM  60.0°F  55°F  calm  3 mph  5 mph  0.00"  39%  41%  34°F  31°F  30.28"
Wed 09:00 AM  55.9°F  53°F  calm  3 mph  none  0.00"  46%  43%  34°F  30°F  30.27"
Wed 08:00 AM  50.2°F  50°F  calm  2 mph  6 mph  0.00"  55%  45%  34°F  29°F  30.27"
Wed 07:00 AM  45.8°F  47°F  3 mph SW  3 mph  4 mph  0.00"  61%  48%  32°F  27°F  30.26"
3Wed 06:27 AM  45.0°F  47°F  2 mph SW  4 mph  3 mph  ----  62%  47%  32°F  28°F  30.25"
Wed 06:00 AM  46.0°F  47°F  3 mph SW  3 mph  4 mph  0.00"  60%  48%  32°F  28°F  30.25"
Wed 05:00 AM  47.1°F  46°F  2 mph SW  3 mph  4 mph  0.00"  58%  51%  33°F  29°F  30.24"
Wed 04:00 AM  47.6°F  46°F  2 mph SW  2 mph  4 mph  0.00"  56%  53%  32°F  29°F  30.23"
Wed 03:00 AM  47.2°F  46°F  3 mph SW  3 mph  5 mph  0.00"  57%  51%  32°F  29°F  30.23"
Wed 02:00 AM  48.9°F  46°F  1 mph SW  2 mph  6 mph  0.00"  53%  51%  32°F  28°F  30.23"
Wed 01:00 AM  50.4°F  47°F  3 mph SW  3 mph  4 mph  0.00"  50%  50%  31°F  29°F  30.23"
Wed 12:00 AM  50.6°F  48°F  2 mph SW  3 mph  5 mph  0.00"  49%  50%  31°F  29°F  30.23"
Tue 11:00 PM  50.6°F  48°F  2 mph SW  3 mph  none  0.00"  48%  49%  31°F  29°F  30.22"
Tue 10:00 PM  51.7°F  48°F  calm  3 mph  3 mph  0.00"  45%  50%  30°F  30°F  30.22"
Tue 09:00 PM  53.9°F  48°F  calm  3 mph  4 mph  0.00"  41%  53%  30°F  31°F  30.22"
Tue 08:00 PM  50.9°F  48°F  1 mph SW  3 mph  9 mph  0.00"  46%  56%  30°F  33°F  30.20"
Tue 07:00 PM  53.8°F  48°F  6 mph NW  3 mph  10 mph  0.00"  42%  59%  30°F  34°F  30.21"
Tue 06:00 PM  55.5°F  48°F  4 mph NW  2 mph  12 mph  0.00"  36%  60%  28°F  35°F  30.20"
Tue 05:00 PM  56.4°F  51°F  6 mph W  2 mph  11 mph  0.00"  35%  58%  28°F  36°F  30.19"
Tue 04:00 PM  59.8°F  56°F  7 mph NW  2 mph  14 mph  0.00"  32%  49%  28°F  37°F  30.16"
Tue 03:00 PM  64.5°F  57°F  8 mph W  4 mph  14 mph  0.00"  23%  48%  25°F  37°F  30.16"
Tue 02:00 PM  64.0°F  58°F  8 mph NW  4 mph  13 mph  0.00"  26%  45%  26°F  36°F  30.15"
Tue 01:00 PM  63.8°F  57°F  4 mph NW  4 mph  14 mph  0.00"  27%  46%  27°F  36°F  30.16"
Tue 12:00 PM  64.5°F  57°F  4 mph S  3 mph  10 mph  0.00"  26%  47%  28°F  36°F  30.16"
Tue 11:00 AM  62.3°F  56°F  4 mph NW  4 mph  9 mph  0.00"  29%  46%  28°F  35°F  30.19"
Tue 10:00 AM  59.2°F  55°F  5 mph NW  3 mph  9 mph  0.00"  34%  45%  29°F  33°F  30.22"
Tue 09:00 AM  59.1°F  53°F  4 mph W  3 mph  8 mph  0.00"  34%  46%  29°F  32°F  30.19"
Tue 08:00 AM  57.3°F  49°F  3 mph W  2 mph  7 mph  0.00"  34%  50%  28°F  31°F  30.18"
Tue 07:00 AM  53.5°F  47°F  4 mph W  3 mph  7 mph  0.00"  39%  52%  28°F  29°F  30.18"

  1. Current weather data. No green row appears if the current weather data is also the high or low for the current day.
  2. High temperature for the current day.
  3. Low temperature for the current day.

The Pinon Hills, California weather pages are a service of WeatherCurrents.
Copyright ©Wed Jan 17 18:06:08 PST 2018  WeatherCurrents. All rights reserved. - Submit questions and comments - Privacy Policy

This page automatically refreshes every 10 minutes.